Time;durP1;ratioP1;P1;durP2;ratioP2;P2;SDS_P1;SDS_P2;PMS_P1;PMS_P2;Temp;Humidity;BMP_temperature;BMP_pressure;BME280_temperature;BME280_humidity;BME280_pressure;Samples;Min_cycle;Max_cycle;Signal;HPM_P1;HPM_P2
2023/05/09 00:02:25;;;;;;;13.80;12.50;;;;;;;;;;5082510;28;20377;-70
2023/05/09 00:04:51;;;;;;;14.98;13.38;;;;;;;;;;5082123;28;20246;-70
2023/05/09 00:07:17;;;;;;;15.27;13.27;;;;;;;;;;5082452;28;20209;-70
2023/05/09 00:09:44;;;;;;;14.88;13.30;;;;;;;;;;5081787;28;20208;-70
2023/05/09 00:12:11;;;;;;;15.65;13.48;;;;;;;;;;5081449;28;20246;-70
2023/05/09 00:14:38;;;;;;;14.60;12.90;;;;;;;;;;5081585;28;20454;-70
2023/05/09 00:17:04;;;;;;;15.05;13.45;;;;;;;;;;5074092;28;20242;-70
2023/05/09 00:19:32;;;;;;;15.25;13.65;;;;;;;;;;5081980;28;20512;-70
2023/05/09 00:21:58;;;;;;;15.80;14.07;;;;;;;;;;5081646;28;20431;-70
2023/05/09 00:24:24;;;;;;;15.40;13.45;;;;;;;;;;5082387;28;20347;-70
2023/05/09 00:26:50;;;;;;;15.57;13.50;;;;;;;;;;5081614;28;20442;-70
2023/05/09 00:29:17;;;;;;;16.70;13.65;;;;;;;;;;5082132;28;20242;-70
2023/05/09 00:31:43;;;;;;;21.92;14.45;;;;;;;;;;5081875;28;20197;-70
2023/05/09 00:34:09;;;;;;;17.02;14.10;;;;;;;;;;5082090;28;20220;-70
2023/05/09 00:36:37;;;;;;;15.95;14.25;;;;;;;;;;5081546;28;20403;-70
2023/05/09 00:39:04;;;;;;;20.10;14.05;;;;;;;;;;5081670;28;20207;-70
2023/05/09 00:41:30;;;;;;;14.93;12.98;;;;;;;;;;5081419;28;20216;-70
2023/05/09 00:43:56;;;;;;;13.73;12.30;;;;;;;;;;5081891;28;20460;-70
2023/05/09 00:46:23;;;;;;;14.70;12.93;;;;;;;;;;5081788;28;20212;-70
2023/05/09 00:48:51;;;;;;;13.88;12.50;;;;;;;;;;5081551;28;20215;-70
2023/05/09 00:51:17;;;;;;;21.40;12.60;;;;;;;;;;5081333;28;20197;-70
2023/05/09 00:53:45;;;;;;;15.82;12.50;;;;;;;;;;5081512;28;20201;-70
2023/05/09 00:56:11;;;;;;;16.40;11.85;;;;;;;;;;5081865;28;20208;-70
2023/05/09 00:58:38;;;;;;;14.15;11.85;;;;;;;;;;5081743;28;20570;-70
2023/05/09 01:01:04;;;;;;;13.82;11.70;;;;;;;;;;5081338;28;20220;-68
2023/05/09 01:03:30;;;;;;;14.50;12.65;;;;;;;;;;5081524;28;20200;-69
2023/05/09 01:06:05;;;;;;;13.90;11.88;;;;;;;;;;5081249;28;20200;-69
2023/05/09 01:08:36;;;;;;;16.88;13.93;;;;;;;;;;5081380;28;20200;-69
2023/05/09 01:11:09;;;;;;;16.67;13.73;;;;;;;;;;5081450;28;20512;-69
2023/05/09 01:13:38;;;;;;;14.68;12.07;;;;;;;;;;5081332;28;20279;-69
2023/05/09 01:16:07;;;;;;;17.00;13.30;;;;;;;;;;5080944;28;20224;-69
2023/05/09 01:18:38;;;;;;;14.77;13.27;;;;;;;;;;5081156;28;20200;-69
2023/05/09 01:21:07;;;;;;;14.13;12.82;;;;;;;;;;5081250;28;20258;-69
2023/05/09 01:23:51;;;;;;;13.77;12.32;;;;;;;;;;5081373;28;20246;-69
2023/05/09 01:26:25;;;;;;;15.00;13.48;;;;;;;;;;5078752;28;20215;-69
2023/05/09 01:29:06;;;;;;;15.65;13.45;;;;;;;;;;5084979;28;20395;-69
2023/05/09 01:31:34;;;;;;;16.77;12.80;;;;;;;;;;5084981;28;20250;-69
2023/05/09 01:34:02;;;;;;;15.50;13.80;;;;;;;;;;5085023;28;20242;-69
2023/05/09 01:36:31;;;;;;;17.42;13.57;;;;;;;;;;5085187;28;20446;-69
2023/05/09 01:38:59;;;;;;;14.85;12.68;;;;;;;;;;5084852;28;20565;-69
2023/05/09 01:41:28;;;;;;;14.00;12.60;;;;;;;;;;5084537;28;20220;-69
2023/05/09 01:43:55;;;;;;;16.13;12.25;;;;;;;;;;5085134;28;20219;-69
2023/05/09 01:46:21;;;;;;;13.57;12.18;;;;;;;;;;5085243;28;20196;-69
2023/05/09 01:48:49;;;;;;;15.68;13.07;;;;;;;;;;5084754;28;20205;-69
2023/05/09 01:51:16;;;;;;;13.65;12.25;;;;;;;;;;5084659;28;20192;-69
2023/05/09 01:53:43;;;;;;;17.40;13.40;;;;;;;;;;5084722;28;20234;-69
2023/05/09 01:56:09;;;;;;;14.43;12.93;;;;;;;;;;5076608;28;20201;-69
2023/05/09 01:58:36;;;;;;;17.55;13.57;;;;;;;;;;5084892;28;20235;-69
2023/05/09 02:01:03;;;;;;;22.73;13.70;;;;;;;;;;5084320;28;20527;-70
2023/05/09 02:03:29;;;;;;;14.43;12.90;;;;;;;;;;5084480;28;20200;-69
2023/05/09 02:05:57;;;;;;;20.00;13.27;;;;;;;;;;5084380;28;20204;-69
2023/05/09 02:08:23;;;;;;;15.20;13.20;;;;;;;;;;5084336;28;20238;-69
2023/05/09 02:10:50;;;;;;;16.65;14.50;;;;;;;;;;5084257;28;20238;-69
2023/05/09 02:13:16;;;;;;;17.45;14.43;;;;;;;;;;5084438;28;20215;-69
2023/05/09 02:15:43;;;;;;;15.55;13.18;;;;;;;;;;5084451;28;20204;-69
2023/05/09 02:18:09;;;;;;;16.92;13.60;;;;;;;;;;5084152;28;20204;-69
2023/05/09 02:20:36;;;;;;;17.73;13.82;;;;;;;;;;5084089;28;20196;-69
2023/05/09 02:23:03;;;;;;;16.95;13.57;;;;;;;;;;5084085;28;20196;-69
2023/05/09 02:25:30;;;;;;;15.68;13.65;;;;;;;;;;5084315;28;20234;-69
2023/05/09 02:27:58;;;;;;;16.65;15.00;;;;;;;;;;5084003;28;20268;-70
2023/05/09 02:30:25;;;;;;;22.25;15.13;;;;;;;;;;5083818;28;20203;-69
2023/05/09 02:32:53;;;;;;;18.13;15.18;;;;;;;;;;5084079;28;20242;-69
2023/05/09 02:35:20;;;;;;;27.45;17.38;;;;;;;;;;5083661;28;20250;-70
2023/05/09 02:37:47;;;;;;;20.23;16.33;;;;;;;;;;5083743;28;20200;-70
2023/05/09 02:40:14;;;;;;;20.80;18.23;;;;;;;;;;5075726;28;20196;-70
2023/05/09 02:42:41;;;;;;;28.23;17.08;;;;;;;;;;5083809;28;20589;-70
2023/05/09 02:45:08;;;;;;;22.00;16.65;;;;;;;;;;5083691;28;20212;-70
2023/05/09 02:47:34;;;;;;;20.55;16.23;;;;;;;;;;5083779;28;20196;-70
2023/05/09 02:50:01;;;;;;;18.25;15.73;;;;;;;;;;5079019;28;20208;-70
2023/05/09 02:52:27;;;;;;;24.00;16.73;;;;;;;;;;5080834;28;20193;-70
2023/05/09 02:54:53;;;;;;;18.13;15.55;;;;;;;;;;5083469;28;20196;-71
2023/05/09 02:57:21;;;;;;;16.55;14.07;;;;;;;;;;5082707;28;20387;-70
2023/05/09 02:59:47;;;;;;;17.25;14.48;;;;;;;;;;5082355;28;20189;-69
2023/05/09 03:02:13;;;;;;;21.88;15.73;;;;;;;;;;5083481;28;20571;-70
2023/05/09 03:04:40;;;;;;;20.67;15.07;;;;;;;;;;5083330;28;20196;-70
2023/05/09 03:07:06;;;;;;;16.60;14.90;;;;;;;;;;5083394;28;20238;-70
2023/05/09 03:09:32;;;;;;;18.35;15.00;;;;;;;;;;5083165;28;20250;-70
2023/05/09 03:11:58;;;;;;;18.65;14.60;;;;;;;;;;5083199;28;20436;-70
2023/05/09 03:14:26;;;;;;;18.75;15.65;;;;;;;;;;5082972;28;20212;-70
2023/05/09 03:16:52;;;;;;;16.92;14.82;;;;;;;;;;5083429;28;20205;-69
2023/05/09 03:19:18;;;;;;;18.40;15.45;;;;;;;;;;5082839;28;20200;-69
2023/05/09 03:21:45;;;;;;;21.88;15.60;;;;;;;;;;5082949;28;20216;-69
2023/05/09 03:24:11;;;;;;;18.83;15.93;;;;;;;;;;5082840;28;20196;-69
2023/05/09 03:26:37;;;;;;;21.98;16.02;;;;;;;;;;5083103;28;20196;-69
2023/05/09 03:29:03;;;;;;;19.83;16.00;;;;;;;;;;5082698;28;20220;-69
2023/05/09 03:31:31;;;;;;;20.20;16.35;;;;;;;;;;5082775;28;20422;-69
2023/05/09 03:33:57;;;;;;;22.08;18.17;;;;;;;;;;5082583;28;20200;-69
2023/05/09 03:36:24;;;;;;;19.98;17.88;;;;;;;;;;5082900;28;20429;-69
2023/05/09 03:38:50;;;;;;;22.63;19.15;;;;;;;;;;5082639;28;20200;-69
2023/05/09 03:41:17;;;;;;;21.30;17.67;;;;;;;;;;5082460;28;20274;-69
2023/05/09 03:43:43;;;;;;;20.63;17.25;;;;;;;;;;5082645;28;20196;-69
2023/05/09 03:46:10;;;;;;;24.50;19.67;;;;;;;;;;5082462;28;20394;-69
2023/05/09 03:48:37;;;;;;;25.35;19.35;;;;;;;;;;5082121;28;20254;-69
2023/05/09 03:51:03;;;;;;;28.85;20.92;;;;;;;;;;5082314;28;20553;-69
2023/05/09 03:53:30;;;;;;;24.48;20.52;;;;;;;;;;5082648;28;20434;-69
2023/05/09 03:55:56;;;;;;;29.33;22.85;;;;;;;;;;5082354;28;20197;-69
2023/05/09 03:58:22;;;;;;;25.70;20.65;;;;;;;;;;5082322;28;20200;-69
2023/05/09 04:00:48;;;;;;;25.42;19.48;;;;;;;;;;5081873;28;20294;-69
2023/05/09 04:03:14;;;;;;;30.15;20.48;;;;;;;;;;5082208;28;20419;-69
2023/05/09 04:05:42;;;;;;;24.85;20.80;;;;;;;;;;5082531;28;20465;-69
2023/05/09 04:08:08;;;;;;;23.92;20.05;;;;;;;;;;5082090;28;20215;-69
2023/05/09 04:10:35;;;;;;;23.77;19.58;;;;;;;;;;5081842;28;20246;-69
2023/05/09 04:13:01;;;;;;;25.38;19.38;;;;;;;;;;5081831;28;20196;-69
2023/05/09 04:15:27;;;;;;;27.85;19.73;;;;;;;;;;5082044;28;20204;-71
2023/05/09 04:17:53;;;;;;;22.73;18.60;;;;;;;;;;5081995;28;20204;-71
2023/05/09 04:20:20;;;;;;;23.20;19.33;;;;;;;;;;5081973;28;20218;-71
2023/05/09 04:22:47;;;;;;;23.73;19.85;;;;;;;;;;5082087;28;20446;-71
2023/05/09 04:25:14;;;;;;;22.85;19.10;;;;;;;;;;5081826;28;20197;-71
2023/05/09 04:27:40;;;;;;;24.23;18.90;;;;;;;;;;5082013;28;20224;-71
2023/05/09 04:30:08;;;;;;;22.52;19.08;;;;;;;;;;5081434;28;20200;-71
2023/05/09 04:32:34;;;;;;;24.02;18.77;;;;;;;;;;5082045;28;20227;-71
2023/05/09 04:35:00;;;;;;;23.60;19.27;;;;;;;;;;5081775;28;20387;-71
2023/05/09 04:37:27;;;;;;;21.77;18.42;;;;;;;;;;5081981;28;20197;-71
2023/05/09 04:39:54;;;;;;;21.70;18.23;;;;;;;;;;5081543;28;20369;-71
2023/05/09 04:42:20;;;;;;;21.33;17.90;;;;;;;;;;5081632;28;20559;-71
2023/05/09 04:44:48;;;;;;;23.63;19.55;;;;;;;;;;5081630;28;20204;-71
2023/05/09 04:47:14;;;;;;;20.55;18.15;;;;;;;;;;5081748;28;20204;-71
2023/05/09 04:49:40;;;;;;;22.67;18.33;;;;;;;;;;5081634;28;20196;-71
2023/05/09 04:52:07;;;;;;;25.30;19.35;;;;;;;;;;5081687;28;20218;-71
2023/05/09 04:54:33;;;;;;;26.63;19.35;;;;;;;;;;5081584;28;20196;-71
2023/05/09 04:57:01;;;;;;;24.95;19.05;;;;;;;;;;5081487;28;20200;-71
2023/05/09 04:59:27;;;;;;;22.48;19.80;;;;;;;;;;5083054;28;20273;-71
2023/05/09 05:01:54;;;;;;;23.42;19.50;;;;;;;;;;5085568;28;20279;-71
2023/05/09 05:04:20;;;;;;;27.15;19.92;;;;;;;;;;5085595;28;20246;-71
2023/05/09 05:06:46;;;;;;;23.23;19.92;;;;;;;;;;5085548;28;20204;-71
2023/05/09 05:09:13;;;;;;;26.48;21.98;;;;;;;;;;5085466;28;20200;-71
2023/05/09 05:11:39;;;;;;;31.95;21.23;;;;;;;;;;5085300;28;20400;-71
2023/05/09 05:14:07;;;;;;;27.95;22.27;;;;;;;;;;5085519;28;20224;-71
2023/05/09 05:16:33;;;;;;;26.63;21.58;;;;;;;;;;5085430;28;20484;-71
2023/05/09 05:18:59;;;;;;;28.27;20.85;;;;;;;;;;5085322;28;20218;-71
2023/05/09 05:21:25;;;;;;;25.75;21.88;;;;;;;;;;5085554;28;20238;-71
2023/05/09 05:23:52;;;;;;;25.70;22.70;;;;;;;;;;5085338;28;20261;-71
2023/05/09 05:26:18;;;;;;;24.90;21.48;;;;;;;;;;5085093;28;20196;-71
2023/05/09 05:28:44;;;;;;;27.33;22.35;;;;;;;;;;5085447;28;20221;-71
2023/05/09 05:31:12;;;;;;;29.02;22.27;;;;;;;;;;5084761;28;20363;-71
2023/05/09 05:33:38;;;;;;;25.13;21.05;;;;;;;;;;5084769;28;20193;-71
2023/05/09 05:36:04;;;;;;;28.33;21.73;;;;;;;;;;5084718;28;20204;-71
2023/05/09 05:38:31;;;;;;;24.70;20.58;;;;;;;;;;5084855;28;20197;-71
2023/05/09 05:40:57;;;;;;;27.05;21.05;;;;;;;;;;5084449;28;20204;-71
2023/05/09 05:43:23;;;;;;;29.90;22.08;;;;;;;;;;5084813;28;20216;-71
2023/05/09 05:45:49;;;;;;;28.20;21.38;;;;;;;;;;5084801;28;20196;-71
2023/05/09 05:48:17;;;;;;;34.00;22.85;;;;;;;;;;5084678;28;20508;-71
2023/05/09 05:50:43;;;;;;;30.20;22.38;;;;;;;;;;5084624;28;20508;-71
2023/05/09 05:53:09;;;;;;;33.63;23.35;;;;;;;;;;5084187;28;20325;-71
2023/05/09 05:55:36;;;;;;;34.22;23.00;;;;;;;;;;5084461;28;20219;-71
2023/05/09 05:58:02;;;;;;;32.35;23.05;;;;;;;;;;5084270;28;20196;-71
2023/05/09 06:00:28;;;;;;;32.17;23.65;;;;;;;;;;5084221;28;20243;-71
2023/05/09 06:02:55;;;;;;;26.98;22.27;;;;;;;;;;5084208;28;20216;-71
2023/05/09 06:05:22;;;;;;;33.33;24.25;;;;;;;;;;5084154;28;20428;-71
2023/05/09 06:07:49;;;;;;;28.48;23.33;;;;;;;;;;5084207;28;20242;-71
2023/05/09 06:10:16;;;;;;;38.08;23.63;;;;;;;;;;5083646;28;20281;-71
2023/05/09 06:12:42;;;;;;;34.55;23.80;;;;;;;;;;5084169;28;20192;-71
2023/05/09 06:15:08;;;;;;;37.28;26.13;;;;;;;;;;5084238;28;20512;-71
2023/05/09 06:17:34;;;;;;;27.77;24.00;;;;;;;;;;5084137;28;20266;-71
2023/05/09 06:20:01;;;;;;;33.75;26.27;;;;;;;;;;5083515;28;20201;-71
2023/05/09 06:22:30;;;;;;;34.03;25.92;;;;;;;;;;5078346;28;20216;-61
2023/05/09 06:24:56;;;;;;;37.67;26.23;;;;;;;;;;5073149;28;20216;-61
2023/05/09 06:27:22;;;;;;;38.28;27.20;;;;;;;;;;5077502;28;20228;-61
2023/05/09 06:29:48;;;;;;;33.78;26.70;;;;;;;;;;5077974;28;20217;-61
2023/05/09 06:32:17;;;;;;;34.28;26.10;;;;;;;;;;5075960;28;20208;-61
2023/05/09 06:34:43;;;;;;;29.88;24.02;;;;;;;;;;5074264;28;20275;-60
2023/05/09 06:37:09;;;;;;;32.58;26.00;;;;;;;;;;5073898;28;20208;-61
2023/05/09 06:39:37;;;;;;;33.10;25.25;;;;;;;;;;5073279;28;20223;-60
2023/05/09 06:42:03;;;;;;;34.33;25.67;;;;;;;;;;5076695;28;20228;-60
2023/05/09 06:44:31;;;;;;;32.90;24.27;;;;;;;;;;5070880;28;20219;-61
2023/05/09 06:46:57;;;;;;;31.65;23.30;;;;;;;;;;5064736;28;20270;-60
2023/05/09 06:49:23;;;;;;;34.53;25.08;;;;;;;;;;5069299;28;20577;-61
2023/05/09 06:51:50;;;;;;;30.95;24.73;;;;;;;;;;5073573;28;20208;-61
2023/05/09 06:54:16;;;;;;;30.02;24.80;;;;;;;;;;5071381;28;20208;-61
2023/05/09 06:56:44;;;;;;;31.60;25.15;;;;;;;;;;5074616;28;20232;-61
2023/05/09 06:59:12;;;;;;;30.63;25.23;;;;;;;;;;5076655;28;20220;-60
2023/05/09 07:01:38;;;;;;;28.50;25.02;;;;;;;;;;5072166;28;20527;-60
2023/05/09 07:04:04;;;;;;;31.70;25.38;;;;;;;;;;5076579;28;20270;-60
2023/05/09 07:06:31;;;;;;;35.13;25.02;;;;;;;;;;5076342;28;20528;-60
2023/05/09 07:08:57;;;;;;;28.75;23.50;;;;;;;;;;5076343;28;20218;-61
2023/05/09 07:11:24;;;;;;;31.30;23.25;;;;;;;;;;5074777;28;20209;-60
2023/05/09 07:13:51;;;;;;;27.58;24.15;;;;;;;;;;5075342;28;20208;-61
2023/05/09 07:16:19;;;;;;;27.90;23.55;;;;;;;;;;5076317;28;20217;-60
2023/05/09 07:18:45;;;;;;;28.50;23.05;;;;;;;;;;5075369;28;20208;-60
2023/05/09 07:21:11;;;;;;;32.15;23.35;;;;;;;;;;5076548;28;20216;-61
2023/05/09 07:23:37;;;;;;;29.83;24.90;;;;;;;;;;5075448;28;20220;-59
2023/05/09 07:26:04;;;;;;;30.05;24.08;;;;;;;;;;5075881;28;20484;-60
2023/05/09 07:28:30;;;;;;;25.38;22.48;;;;;;;;;;5075351;28;20262;-60
2023/05/09 07:30:57;;;;;;;27.77;23.65;;;;;;;;;;5074717;28;20212;-61
2023/05/09 07:33:24;;;;;;;28.55;23.10;;;;;;;;;;5074634;28;20205;-60
2023/05/09 07:35:51;;;;;;;31.00;24.50;;;;;;;;;;5069349;28;20282;-60
2023/05/09 07:38:18;;;;;;;24.55;21.48;;;;;;;;;;5072939;28;20212;-60
2023/05/09 07:40:44;;;;;;;26.85;22.83;;;;;;;;;;5072953;28;20252;-60
2023/05/09 07:43:10;;;;;;;27.23;22.67;;;;;;;;;;5071468;28;20228;-60
2023/05/09 07:45:36;;;;;;;28.45;22.35;;;;;;;;;;5075581;28;20216;-59
2023/05/09 07:48:04;;;;;;;29.58;24.58;;;;;;;;;;5075579;28;20266;-60
2023/05/09 07:50:30;;;;;;;29.40;24.42;;;;;;;;;;5070195;28;20507;-60
2023/05/09 07:52:57;;;;;;;26.80;22.83;;;;;;;;;;5071159;28;20570;-59
2023/05/09 07:55:23;;;;;;;26.90;22.38;;;;;;;;;;5074920;28;20428;-59
2023/05/09 07:57:49;;;;;;;26.13;23.25;;;;;;;;;;5074822;28;20213;-60
2023/05/09 08:00:16;;;;;;;26.58;22.58;;;;;;;;;;5075193;28;20216;-60
2023/05/09 08:02:42;;;;;;;25.55;20.90;;;;;;;;;;5074143;28;20615;-60
2023/05/09 08:05:12;;;;;;;24.17;20.83;;;;;;;;;;5075919;28;20258;-60
2023/05/09 08:07:38;;;;;;;24.27;20.90;;;;;;;;;;5074720;28;20428;-61
2023/05/09 08:10:05;;;;;;;26.92;21.88;;;;;;;;;;5075702;28;20249;-60
2023/05/09 08:12:31;;;;;;;25.90;22.33;;;;;;;;;;5075611;28;20208;-60
2023/05/09 08:14:57;;;;;;;26.48;21.90;;;;;;;;;;5074832;28;20254;-61
2023/05/09 08:17:23;;;;;;;26.95;22.92;;;;;;;;;;5075098;28;20394;-61
2023/05/09 08:19:50;;;;;;;26.48;22.00;;;;;;;;;;5069420;28;20293;-61
2023/05/09 08:22:18;;;;;;;31.73;23.77;;;;;;;;;;5074286;28;20481;-61
2023/05/09 08:24:45;;;;;;;28.10;21.65;;;;;;;;;;5074917;28;20536;-60
2023/05/09 08:27:12;;;;;;;24.00;21.50;;;;;;;;;;5074650;28;20228;-60
2023/05/09 08:29:38;;;;;;;26.60;22.42;;;;;;;;;;5074493;28;20239;-60
2023/05/09 08:32:05;;;;;;;26.55;22.50;;;;;;;;;;5073922;28;20212;-59
2023/05/09 08:34:33;;;;;;;23.08;19.63;;;;;;;;;;5074045;28;20427;-59
2023/05/09 08:36:59;;;;;;;25.80;21.63;;;;;;;;;;5074887;28;20216;-60
2023/05/09 08:39:27;;;;;;;23.38;20.75;;;;;;;;;;5075881;28;20350;-59
2023/05/09 08:41:57;;;;;;;25.95;21.02;;;;;;;;;;5075214;28;20208;-60
2023/05/09 08:44:23;;;;;;;20.88;18.67;;;;;;;;;;5075179;28;20262;-60
2023/05/09 08:46:51;;;;;;;23.48;20.33;;;;;;;;;;5075259;28;20212;-61
2023/05/09 08:49:18;;;;;;;22.08;19.48;;;;;;;;;;5074666;28;20250;-60
2023/05/09 08:51:45;;;;;;;22.70;18.05;;;;;;;;;;5074459;28;20480;-60
2023/05/09 08:54:12;;;;;;;24.27;19.55;;;;;;;;;;5075292;28;20246;-60
2023/05/09 08:56:40;;;;;;;22.23;19.65;;;;;;;;;;5074027;28;20212;-61
2023/05/09 08:59:06;;;;;;;20.67;18.42;;;;;;;;;;5074533;28;20212;-61
2023/05/09 09:01:33;;;;;;;18.63;16.75;;;;;;;;;;5074820;28;20234;-60
2023/05/09 09:04:00;;;;;;;23.05;17.65;;;;;;;;;;5074525;28;20281;-60
2023/05/09 09:06:28;;;;;;;23.08;16.17;;;;;;;;;;5074759;28;20250;-60
2023/05/09 09:08:55;;;;;;;17.23;15.43;;;;;;;;;;5075483;28;20573;-60
2023/05/09 09:11:22;;;;;;;19.60;17.67;;;;;;;;;;5074237;28;20555;-60
2023/05/09 09:13:51;;;;;;;19.23;16.00;;;;;;;;;;5074446;28;20236;-60
2023/05/09 09:16:19;;;;;;;23.92;19.35;;;;;;;;;;5075320;28;20205;-60
2023/05/09 09:18:46;;;;;;;19.50;15.63;;;;;;;;;;5074709;28;20243;-60
2023/05/09 09:21:12;;;;;;;16.17;14.38;;;;;;;;;;5074820;28;20213;-60
2023/05/09 09:23:39;;;;;;;15.68;14.10;;;;;;;;;;5074470;28;20246;-61
2023/05/09 09:26:05;;;;;;;17.35;15.32;;;;;;;;;;5075009;28;20426;-60
2023/05/09 09:28:32;;;;;;;16.05;14.35;;;;;;;;;;5074552;28;20223;-60
2023/05/09 09:31:00;;;;;;;18.13;15.77;;;;;;;;;;5074998;28;20408;-60
2023/05/09 09:33:27;;;;;;;16.95;15.15;;;;;;;;;;5074090;28;20538;-60
2023/05/09 09:35:54;;;;;;;16.80;15.10;;;;;;;;;;5074265;28;20275;-60
2023/05/09 09:38:20;;;;;;;16.35;14.65;;;;;;;;;;5074258;28;20266;-60
2023/05/09 09:40:52;;;;;;;16.60;14.02;;;;;;;;;;5067299;28;20238;-60
2023/05/09 09:43:19;;;;;;;16.13;14.45;;;;;;;;;;5073745;28;20228;-60
2023/05/09 09:45:48;;;;;;;16.15;14.55;;;;;;;;;;5076452;28;20208;-61
2023/05/09 09:48:16;;;;;;;16.13;13.93;;;;;;;;;;5077829;28;20215;-61
2023/05/09 09:50:42;;;;;;;15.82;13.80;;;;;;;;;;5078652;28;20453;-61
2023/05/09 09:53:08;;;;;;;16.17;14.05;;;;;;;;;;5078149;28;20234;-60
2023/05/09 09:55:34;;;;;;;13.35;12.15;;;;;;;;;;5078013;28;20220;-60
2023/05/09 09:58:01;;;;;;;14.20;12.80;;;;;;;;;;5077157;28;20319;-60
2023/05/09 10:00:28;;;;;;;15.68;14.07;;;;;;;;;;5078018;28;20500;-62
2023/05/09 10:02:55;;;;;;;13.73;12.43;;;;;;;;;;5077761;28;20234;-62
2023/05/09 10:05:23;;;;;;;13.68;12.27;;;;;;;;;;5077603;28;20474;-62
2023/05/09 10:07:51;;;;;;;12.48;11.40;;;;;;;;;;5077409;28;20212;-62
2023/05/09 10:10:18;;;;;;;13.52;12.23;;;;;;;;;;5077131;28;20235;-62
2023/05/09 10:12:45;;;;;;;14.80;11.52;;;;;;;;;;5076855;28;20243;-62
2023/05/09 10:15:12;;;;;;;13.20;11.80;;;;;;;;;;5077285;28;20406;-62
2023/05/09 10:17:38;;;;;;;11.57;10.50;;;;;;;;;;5069812;28;20237;-62
2023/05/09 10:20:05;;;;;;;11.98;10.82;;;;;;;;;;5077037;28;20404;-62
2023/05/09 10:22:34;;;;;;;11.15;10.18;;;;;;;;;;5077176;28;20439;-62
2023/05/09 10:25:02;;;;;;;8.93;8.10;;;;;;;;;;5078170;28;20481;-62
2023/05/09 10:27:28;;;;;;;10.90;9.23;;;;;;;;;;5076348;28;20677;-63
2023/05/09 10:29:57;;;;;;;9.68;7.68;;;;;;;;;;5076308;28;20466;-63
2023/05/09 10:32:25;;;;;;;9.45;8.50;;;;;;;;;;5077779;28;20465;-62
2023/05/09 10:34:54;;;;;;;9.57;8.77;;;;;;;;;;5076640;28;20567;-62
2023/05/09 10:37:21;;;;;;;9.65;8.75;;;;;;;;;;5077207;28;20212;-62
2023/05/09 10:39:51;;;;;;;15.13;9.65;;;;;;;;;;5077181;28;20207;-62
2023/05/09 10:42:18;;;;;;;10.95;9.88;;;;;;;;;;5076644;28;20249;-62
2023/05/09 10:44:45;;;;;;;11.13;10.13;;;;;;;;;;5076138;28;20224;-62
2023/05/09 10:47:12;;;;;;;12.45;11.18;;;;;;;;;;5077056;28;20431;-62
2023/05/09 10:49:39;;;;;;;11.80;10.65;;;;;;;;;;5076443;28;20211;-62
2023/05/09 10:52:05;;;;;;;9.88;8.98;;;;;;;;;;5076867;28;20211;-62
2023/05/09 10:54:32;;;;;;;11.73;10.07;;;;;;;;;;5077291;28;20292;-62
2023/05/09 10:57:00;;;;;;;11.55;10.27;;;;;;;;;;5075519;28;20214;-62
2023/05/09 10:59:34;;;;;;;11.40;10.27;;;;;;;;;;5076479;28;20218;-62
2023/05/09 11:02:02;;;;;;;13.30;10.60;;;;;;;;;;5076493;28;20214;-62
2023/05/09 11:04:28;;;;;;;10.73;9.70;;;;;;;;;;5076716;28;20234;-63
2023/05/09 11:06:54;;;;;;;9.85;8.95;;;;;;;;;;5076922;28;20253;-62
2023/05/09 11:09:25;;;;;;;11.23;10.13;;;;;;;;;;5076824;28;20212;-63
2023/05/09 11:11:52;;;;;;;10.80;9.60;;;;;;;;;;5076426;28;20239;-62
2023/05/09 11:14:29;;;;;;;9.63;8.82;;;;;;;;;;5075840;28;20454;-63
2023/05/09 11:16:56;;;;;;;11.82;10.65;;;;;;;;;;5076112;28;20242;-64
2023/05/09 11:19:33;;;;;;;12.32;10.23;;;;;;;;;;5076264;28;20223;-63
2023/05/09 11:22:00;;;;;;;11.30;10.10;;;;;;;;;;5075933;28;20226;-63
2023/05/09 11:24:29;;;;;;;10.55;9.13;;;;;;;;;;5076325;28;20254;-63
2023/05/09 11:26:56;;;;;;;9.40;8.50;;;;;;;;;;5075489;28;20534;-64
2023/05/09 11:29:26;;;;;;;9.90;8.60;;;;;;;;;;5075623;28;20519;-63
2023/05/09 11:32:06;;;;;;;9.55;8.43;;;;;;;;;;5075459;28;20207;-62
2023/05/09 11:34:33;;;;;;;9.50;8.55;;;;;;;;;;5075457;28;20212;-63
2023/05/09 11:37:06;;;;;;;10.02;9.13;;;;;;;;;;5075764;28;20208;-63
2023/05/09 11:39:33;;;;;;;10.18;9.18;;;;;;;;;;5076137;28;20212;-64
2023/05/09 11:41:59;;;;;;;10.68;9.10;;;;;;;;;;5075795;28;20254;-64
2023/05/09 11:44:26;;;;;;;9.20;8.25;;;;;;;;;;5075112;28;20231;-64
2023/05/09 11:46:52;;;;;;;8.93;7.70;;;;;;;;;;5073310;28;20212;-64
2023/05/09 11:49:20;;;;;;;9.07;8.20;;;;;;;;;;5075401;28;20270;-64
2023/05/09 11:51:46;;;;;;;9.10;8.20;;;;;;;;;;5075671;28;20265;-64
2023/05/09 11:54:13;;;;;;;8.60;7.70;;;;;;;;;;5076722;28;20235;-64
2023/05/09 11:56:40;;;;;;;8.65;7.85;;;;;;;;;;5075961;28;20550;-64
2023/05/09 11:59:06;;;;;;;8.73;8.02;;;;;;;;;;5074483;28;20257;-64
2023/05/09 12:01:33;;;;;;;8.55;7.00;;;;;;;;;;5075092;28;20208;-65
2023/05/09 12:03:59;;;;;;;7.47;6.78;;;;;;;;;;5075672;28;20227;-63
2023/05/09 12:06:27;;;;;;;5.88;5.20;;;;;;;;;;5074922;28;20212;-63
2023/05/09 12:08:54;;;;;;;5.38;5.00;;;;;;;;;;5075655;28;20212;-63
2023/05/09 12:11:21;;;;;;;4.90;4.60;;;;;;;;;;5075682;28;20212;-64
2023/05/09 12:13:48;;;;;;;5.32;4.70;;;;;;;;;;5074057;28;20208;-64
2023/05/09 12:16:15;;;;;;;12.05;4.95;;;;;;;;;;5075828;28;20257;-63
2023/05/09 12:18:44;;;;;;;8.00;5.32;;;;;;;;;;5075441;28;20224;-63
2023/05/09 12:21:11;;;;;;;5.88;4.90;;;;;;;;;;5075313;28;20219;-63
2023/05/09 12:23:38;;;;;;;5.00;4.53;;;;;;;;;;5075535;28;20227;-63
2023/05/09 12:26:04;;;;;;;4.70;4.40;;;;;;;;;;5075902;28;20212;-63
2023/05/09 12:28:31;;;;;;;4.47;4.13;;;;;;;;;;5074840;28;20228;-64
2023/05/09 12:30:58;;;;;;;4.80;4.45;;;;;;;;;;5075155;28;20216;-63
2023/05/09 12:33:24;;;;;;;7.63;4.55;;;;;;;;;;5074369;28;20216;-63
2023/05/09 12:36:02;;;;;;;5.20;4.82;;;;;;;;;;5075229;28;20268;-63
2023/05/09 12:38:28;;;;;;;8.27;4.80;;;;;;;;;;5075460;28;20211;-64
2023/05/09 12:41:01;;;;;;;4.40;4.20;;;;;;;;;;5074922;28;20560;-64
2023/05/09 12:43:29;;;;;;;3.42;3.22;;;;;;;;;;5074574;28;20520;-63
2023/05/09 12:45:55;;;;;;;4.95;3.10;;;;;;;;;;5075125;28;20220;-63
2023/05/09 12:48:22;;;;;;;3.00;2.90;;;;;;;;;;5074802;28;20211;-63
2023/05/09 12:50:49;;;;;;;4.13;3.15;;;;;;;;;;5074246;28;20232;-63
2023/05/09 12:53:22;;;;;;;3.45;2.65;;;;;;;;;;5074901;28;20402;-63
2023/05/09 12:55:49;;;;;;;2.78;2.58;;;;;;;;;;5070110;28;20566;-63
2023/05/09 12:58:16;;;;;;;2.83;2.70;;;;;;;;;;5074002;28;20452;-63
2023/05/09 13:00:43;;;;;;;3.63;2.88;;;;;;;;;;5074110;28;20261;-63
2023/05/09 13:03:19;;;;;;;2.90;2.70;;;;;;;;;;5075049;28;20212;-63
2023/05/09 13:05:53;;;;;;;3.60;3.30;;;;;;;;;;5074919;28;20410;-63
2023/05/09 13:08:21;;;;;;;3.15;2.55;;;;;;;;;;5075335;28;20204;-63
2023/05/09 13:10:47;;;;;;;2.80;2.63;;;;;;;;;;5074005;28;20709;-63
2023/05/09 13:13:15;;;;;;;2.97;2.70;;;;;;;;;;5074164;28;20212;-63
2023/05/09 13:15:42;;;;;;;2.80;2.70;;;;;;;;;;5074475;28;20208;-63
2023/05/09 13:18:09;;;;;;;5.03;2.67;;;;;;;;;;5074786;28;20439;-63
2023/05/09 13:20:35;;;;;;;4.00;3.10;;;;;;;;;;5076086;28;20456;-63
2023/05/09 13:23:01;;;;;;;2.60;2.53;;;;;;;;;;5078164;28;20403;-63
2023/05/09 13:25:28;;;;;;;3.15;2.20;;;;;;;;;;5078095;28;20227;-63
2023/05/09 13:27:54;;;;;;;3.53;2.25;;;;;;;;;;5078677;28;20223;-63
2023/05/09 13:30:20;;;;;;;1.95;1.95;;;;;;;;;;5077958;28;20253;-63
2023/05/09 13:32:48;;;;;;;3.38;2.28;;;;;;;;;;5077906;28;20413;-63
2023/05/09 13:35:14;;;;;;;2.63;2.28;;;;;;;;;;5078336;28;20226;-63
2023/05/09 13:37:41;;;;;;;2.35;2.15;;;;;;;;;;5077770;28;20545;-63
2023/05/09 13:40:07;;;;;;;3.10;2.90;;;;;;;;;;5077629;28;20244;-63
2023/05/09 13:42:34;;;;;;;2.75;2.50;;;;;;;;;;5077631;28;20220;-63
2023/05/09 13:45:00;;;;;;;3.13;2.90;;;;;;;;;;5077076;28;20228;-63
2023/05/09 13:47:26;;;;;;;2.47;2.25;;;;;;;;;;5078077;28;20215;-63
2023/05/09 13:49:54;;;;;;;2.90;2.53;;;;;;;;;;5077536;28;20444;-63
2023/05/09 13:52:20;;;;;;;2.47;2.42;;;;;;;;;;5078047;28;20220;-63
2023/05/09 13:54:47;;;;;;;2.53;2.53;;;;;;;;;;5077638;28;20232;-63
2023/05/09 13:57:13;;;;;;;2.88;2.75;;;;;;;;;;5076874;28;20245;-63
2023/05/09 13:59:40;;;;;;;2.60;2.50;;;;;;;;;;5077216;28;20593;-63
2023/05/09 14:02:07;;;;;;;4.18;3.33;;;;;;;;;;5077089;28;20442;-63
2023/05/09 14:04:33;;;;;;;3.00;2.90;;;;;;;;;;5077714;28;20504;-63
2023/05/09 14:07:01;;;;;;;2.90;2.80;;;;;;;;;;5077738;28;20215;-62
2023/05/09 14:09:28;;;;;;;2.65;2.30;;;;;;;;;;5077329;28;20216;-62
2023/05/09 14:11:55;;;;;;;5.35;3.70;;;;;;;;;;5077408;28;20208;-62
2023/05/09 14:14:22;;;;;;;3.13;3.00;;;;;;;;;;5076889;28;20535;-62
2023/05/09 14:16:48;;;;;;;3.25;3.15;;;;;;;;;;5077970;28;20216;-62
2023/05/09 14:19:15;;;;;;;3.47;3.17;;;;;;;;;;5078470;28;20215;-62
2023/05/09 14:21:41;;;;;;;3.80;3.60;;;;;;;;;;5077444;28;20200;-62
2023/05/09 14:24:09;;;;;;;3.25;3.15;;;;;;;;;;5077236;28;20218;-62